Air Resources Laboratory banner image
Air Resources Laboratory web site National Oceanic and Atmospheric Administration (NOAA)

mo metar


KAIZ 121756Z AUTO 29008KT 10SM CLR 00/M11 A3030 RMK AO2 SLP265 T00001111 10000
 21050 58007 FZRANO=
KCDJ 121752Z AUTO VRB06KT M01/M14 A3029 RMK AO1 SLP271 T10061139 11006 21078
 58015=
KCGI 121753Z 34015KT 10SM CLR 03/M11 A3020 RMK AO2 PK WND 34026/1716 SLP229
 T00331106 10044 20017 50000=
KCOU 121754Z 28010KT 10SM CLR 00/M13 A3026 RMK AO2 PRESFR SLP255 T00001128
 10000 21056 58008=
KDMO 121753Z AUTO 31007KT 10SM CLR 01/M13 A3031 RMK AO2 SLP272 T00061128 10006
 21061 58008 $=
KFAM 121756Z AUTO 30011G17KT 10SM CLR 02/M13 A3020 RMK AO2 SLP233 T00171133
 10017 21022 58004 FZRANO=
KIRK 121755Z AUTO 00000KT CLR M02/ A3025 RMK AO2 SLP256 T1017 11017 21083 58012
 PWINO FZRANO $=
KJEF 121753Z 31012KT 10SM CLR 00/M12 A3030 RMK AO2 SLP256 T00001122 10000 21044
 58005=
KJLN 121753Z 34005KT 10SM CLR 02/M10 A3034 RMK AO2 SLP280 T00221100 10022 21050
 58010=
KMCI 121753Z 27008KT 10SM FEW250 00/M12 A3030 RMK AO2 SLP268 T00001117 10000
 21078 58015 $=
KMKC 121754Z 29007KT 10SM CLR 01/M12 A3031 RMK AO2 SLP269 T00111122 10011 21050
 58019=
KPOF 121753Z AUTO 34010G16KT 10SM CLR 06/M08 A3021 RMK AO2 SLP233 T00611083
 10061 20028 58000=
KSET 121754Z AUTO 33011G20KT 10SM CLR 01/M14 A3022 RMK AO2 SLP235 T00111139
 10011 21022 58010=
KSGF 121752Z 33007KT 10SM CLR 02/M11 A3028 RMK AO2 SLP261 T00221111 10022 21044
 58005=
KSTJ 121753Z 25009KT 10SM CLR M01/M10 A3031 RMK AO2 SLP271 T10061100 11006
 21100 58019=
KSTL 121751Z 29010KT 10SM SCT250 01/M12 A3021 RMK AO2 SLP239 T00111122 10011
 21028 58010=
KSUS 121754Z 32012KT 10SM CLR 01/M13 A3023 RMK AO2 SLP242 T00111133 10011 21028
 58011=
KSZL 121756Z 30007KT 10SM SCT250 00/M15 A3026 RMK AO2A SLP258 T00021146 10002
 21071 58012=
KTBN 121756Z AUTO 33012G17KT 10SM CLR 01/M14 A3024 RMK AO2 SLP251 T00061142
 10008 21046 58005=
KUNO 121753Z AUTO 32009G17KT 10SM CLR 04/M12 A3024 RMK AO2 SNB1658E35 SLP244
 P0000 60000 T00391117 10039 21028 58003=
KVIH 121753Z AUTO 33011G17KT 10SM CLR 00/M12 A3025 RMK AO2 SLP250 T00001122
 10000 21050 58005=